Hlavní strana
METAR-TAF:

METAR-TAF

Letiště :

Yellowknife, Severozápadní teritoria, Kanada

zeměpisná šířka: 62-28N, zeměpisná délka: 114-27W, výška: 205 m

Aktuální stav počasí

Zpráva byla vytvořena před 1 hodinou a 2 minutami, v 14:00 UTC
Jihovýchodní vítr 6 kt
Teplota -4°C
Vlhkost vzduchu 100%
Tlak 1010 hPa
Viditelnost: 24.1 km
Skoro jasno ve výšce 12000 ft
Oblačno až skoro zataženo ve výšce 24000 ft

METAR: CYZF 191400Z 13006KT 15SM FEW120 BKN240 M04/M04 A2982 RMK AC1CI7 AC TR SLP115

Čas: 09:02 (15:02 UTC)

Předpověď počasí

Zpráva byla vytvořena před 3 hodinami a 24 minutami, v 11:38 UTC
Předpověď platná od 19 v 12 UTC do 20 v 12 UTC
Východní vítr 5 kt
Viditelnost: 10 km
Polojasno ve výšce 22000 ft
Od 19 v 2000 UTC
Západojihozápadní vítr 7 kt
Viditelnost: 10 km
Jasno
Změna
od 20 v 03 UTC do 20 v 05 UTC
vítr z různých směrů 3 kt

TAF: CYZF 191138Z 1912/2012 10005KT P6SM SCT220 FM192000 25007KT P6SM SKC BECMG 2003/2005 VRB03KT RMK NXT FCST BY 191800Z

Stav a předpovědi počasí z více než 4 000 letišť (zprávy METAR a TAF).

Červené a žluté tečky na mapě představují dostupné meteorologické stanice.

Když kurzor umístíte na tečku, zobrazí se název stanice.

Pak kliknutím zobrazíte stav a předpověď počasí.

Chcete-li změnit mapu, kliknutím na zelené tlačítko se znaménkem +mapu přiblížíte, kliknutím na zelené tlačítko se znaménkem – mapu oddálíte a kliknutím na zelené šipky přejdete na sousední mapy.


METAR-TAF: